Time;durP1;ratioP1;P1;durP2;ratioP2;P2;SDS_P1;SDS_P2;PMS_P1;PMS_P2;Temp;Humidity;BMP_temperature;BMP_pressure;BME280_temperature;BME280_humidity;BME280_pressure;Samples;Min_cycle;Max_cycle;Signal;HPM_P1;HPM_P2
2022/06/01 00:00:27;;;;;;;8.70;5.53;;;12.40;99.90;;;;;;4995303;28;20558;-87
2022/06/01 00:02:54;;;;;;;7.40;5.73;;;12.40;99.90;;;;;;4995593;28;20192;-87
2022/06/01 00:05:21;;;;;;;6.47;5.43;;;12.30;99.90;;;;;;4995309;28;20250;-87
2022/06/01 00:07:48;;;;;;;6.60;5.60;;;12.30;1.00;;;;;;4997123;28;20234;-87
2022/06/01 00:10:15;;;;;;;7.30;5.70;;;12.30;1.00;;;;;;5004957;28;20295;-87
2022/06/01 00:12:43;;;;;;;8.90;5.53;;;12.30;1.00;;;;;;4995327;28;20241;-87
2022/06/01 00:15:15;;;;;;;6.90;5.70;;;12.20;1.00;;;;;;4995759;28;20281;-87
2022/06/01 00:17:42;;;;;;;7.23;5.43;;;12.20;1.00;;;;;;4995404;28;20194;-87
2022/06/01 00:20:10;;;;;;;5.80;5.20;;;12.20;1.00;;;;;;4995299;28;20260;-87
2022/06/01 00:22:37;;;;;;;6.80;5.67;;;12.20;1.00;;;;;;4995401;28;20202;-86
2022/06/01 00:25:07;;;;;;;5.63;5.10;;;12.20;1.00;;;;;;4995174;28;20282;-87
2022/06/01 00:27:35;;;;;;;5.90;5.27;;;12.20;1.00;;;;;;4994861;28;20198;-86
2022/06/01 00:30:02;;;;;;;8.03;6.00;;;12.20;1.00;;;;;;4995042;28;20205;-87
2022/06/01 00:32:30;;;;;;;7.17;6.03;;;12.20;1.00;;;;;;4995062;28;20219;-87
2022/06/01 00:34:59;;;;;;;6.93;5.67;;;12.20;1.00;;;;;;4994844;28;20555;-86
2022/06/01 00:37:26;;;;;;;6.97;6.23;;;12.20;1.00;;;;;;4981297;28;20202;-87
2022/06/01 00:39:53;;;;;;;8.03;6.37;;;12.20;1.00;;;;;;5000850;28;20214;-87
2022/06/01 00:42:22;;;;;;;7.33;6.17;;;12.10;1.00;;;;;;4995896;28;20213;-87
2022/06/01 00:44:50;;;;;;;7.00;6.30;;;12.10;1.00;;;;;;4994462;28;20226;-86
2022/06/01 00:47:17;;;;;;;7.53;6.80;;;12.00;1.00;;;;;;4994525;28;20679;-86
2022/06/01 00:49:51;;;;;;;8.30;6.50;;;12.00;1.00;;;;;;4994786;28;20237;-87
2022/06/01 00:52:35;;;;;;;8.43;6.13;;;11.90;1.00;;;;;;4994723;28;20205;-87
2022/06/01 00:55:04;;;;;;;10.47;7.43;;;11.90;1.00;;;;;;4994519;28;20191;-87
2022/06/01 00:57:31;;;;;;;9.70;7.30;;;11.90;1.00;;;;;;4994226;28;20226;-86
2022/06/01 01:00:00;;;;;;;9.20;7.40;;;11.90;1.00;;;;;;4994614;28;20273;-86
2022/06/01 01:02:29;;;;;;;8.43;7.40;;;11.90;1.00;;;;;;4994035;28;20233;-87
2022/06/01 01:04:57;;;;;;;8.53;6.83;;;11.90;1.00;;;;;;4994708;28;20192;-87
2022/06/01 01:07:26;;;;;;;10.97;7.23;;;12.00;1.00;;;;;;4994439;28;20227;-88
2022/06/01 01:09:53;;;;;;;12.60;8.50;;;12.00;1.00;;;;;;5005049;28;20240;-87
2022/06/01 01:12:20;;;;;;;8.53;7.73;;;12.00;1.00;;;;;;4994484;28;20282;-87
2022/06/01 01:14:48;;;;;;;8.83;7.77;;;12.00;1.00;;;;;;4994026;28;20196;-87
2022/06/01 01:17:15;;;;;;;7.83;7.03;;;12.00;1.00;;;;;;4994278;28;20257;-86
2022/06/01 01:19:46;;;;;;;8.10;7.17;;;12.00;1.00;;;;;;4993674;28;20234;-87
2022/06/01 01:22:28;;;;;;;12.23;9.93;;;12.00;1.00;;;;;;4994346;28;20186;-87
2022/06/01 01:25:24;;;;;;;7.93;7.13;;;12.00;3.40;;;;;;4993622;28;20554;-86
2022/06/01 01:27:56;;;;;;;8.63;6.73;;;12.00;5.90;;;;;;4994184;28;20336;-86
2022/06/01 01:30:53;;;;;;;7.93;6.70;;;11.90;1.00;;;;;;4994164;28;20286;-87
2022/06/01 01:33:22;;;;;;;8.00;7.20;;;11.90;99.60;;;;;;4994070;28;20198;-86
2022/06/01 01:35:52;;;;;;;12.07;8.27;;;11.80;1.00;;;;;;4993775;28;20191;-87
2022/06/01 01:38:25;;;;;;;7.90;7.10;;;11.80;53.80;;;;;;5000308;28;20277;-87
2022/06/01 01:41:16;;;;;;;9.03;7.00;;;11.80;99.90;;;;;;4998019;28;20223;-87
2022/06/01 01:43:49;;;;;;;9.70;7.67;;;11.80;99.90;;;;;;4989498;28;20202;-87
2022/06/01 01:46:16;;;;;;;9.53;7.67;;;11.80;99.90;;;;;;4993668;28;20257;-86
2022/06/01 01:48:43;;;;;;;9.67;7.57;;;11.80;99.90;;;;;;4993687;28;20226;-87
2022/06/01 01:51:12;;;;;;;10.47;8.20;;;11.70;99.90;;;;;;4993535;28;20730;-86
2022/06/01 01:53:39;;;;;;;10.77;8.87;;;11.70;99.90;;;;;;4993448;28;20290;-86
2022/06/01 01:56:25;;;;;;;9.33;7.97;;;11.70;99.90;;;;;;4993393;28;20235;-87
2022/06/01 01:59:04;;;;;;;8.53;7.63;;;11.70;99.90;;;;;;4993516;28;20213;-85
2022/06/01 02:01:40;;;;;;;8.90;8.00;;;11.70;99.90;;;;;;4993434;28;20273;-86
2022/06/01 02:07:03;;;;;;;9.00;8.10;;;11.80;99.90;;;;;;4993088;28;20188;-89
2022/06/01 02:12:40;;;;;;;8.47;7.57;;;11.90;99.90;;;;;;4995837;28;20231;-87
2022/06/01 02:15:05;;;;;;;7.70;6.93;;;12.00;99.90;;;;;;4992932;28;20203;-86
2022/06/01 02:17:38;;;;;;;9.10;7.63;;;12.10;99.90;;;;;;4993225;28;20198;-86
2022/06/01 02:20:10;;;;;;;10.97;7.57;;;12.10;1.00;;;;;;4992479;28;20230;-86
2022/06/01 02:22:39;;;;;;;7.70;6.90;;;12.10;1.00;;;;;;4992857;28;20643;-87
2022/06/01 02:25:07;;;;;;;8.30;7.10;;;12.20;1.00;;;;;;4992607;28;20198;-87
2022/06/01 02:27:36;;;;;;;8.50;6.97;;;12.20;1.00;;;;;;4993060;28;20278;-87
2022/06/01 02:30:09;;;;;;;9.40;7.33;;;12.30;1.00;;;;;;4992907;28;20231;-86
2022/06/01 02:32:37;;;;;;;8.33;7.43;;;12.30;1.00;;;;;;4992671;28;20631;-87
2022/06/01 02:35:07;;;;;;;8.57;7.67;;;12.40;1.00;;;;;;4992692;28;20199;-87
2022/06/01 02:37:36;;;;;;;8.00;7.13;;;12.40;1.00;;;;;;4993124;28;20225;-88
2022/06/01 02:40:07;;;;;;;8.03;7.23;;;12.50;1.00;;;;;;4995062;28;20225;-86
2022/06/01 02:42:43;;;;;;;8.93;7.53;;;12.50;1.00;;;;;;4979146;28;20631;-87
2022/06/01 02:45:12;;;;;;;9.10;6.80;;;12.50;1.00;;;;;;4990946;28;20218;-87
2022/06/01 02:47:41;;;;;;;8.67;7.43;;;12.50;1.00;;;;;;4992607;28;20607;-86
2022/06/01 02:50:11;;;;;;;8.10;7.17;;;12.60;1.00;;;;;;4992593;28;20262;-87
2022/06/01 02:52:38;;;;;;;8.60;7.37;;;12.60;99.90;;;;;;4992759;28;20279;-88
2022/06/01 02:55:06;;;;;;;9.00;7.93;;;12.60;99.90;;;;;;4992223;28;20197;-86
2022/06/01 02:57:35;;;;;;;9.10;8.10;;;12.60;99.90;;;;;;4992881;28;20196;-86
2022/06/01 03:00:04;;;;;;;8.80;7.87;;;12.60;99.90;;;;;;4992645;28;20336;-86
2022/06/01 03:02:31;;;;;;;10.87;7.90;;;12.70;99.90;;;;;;4992773;28;20198;-86
2022/06/01 03:04:58;;;;;;;10.17;8.27;;;12.70;99.90;;;;;;4992608;28;20200;-86
2022/06/01 03:07:25;;;;;;;9.53;8.30;;;12.70;99.90;;;;;;4994288;28;20648;-86
2022/06/01 03:09:52;;;;;;;10.03;7.57;;;12.70;99.90;;;;;;4997499;28;20233;-86
2022/06/01 03:12:18;;;;;;;10.97;7.80;;;12.70;99.90;;;;;;4992769;28;20277;-86
2022/06/01 03:14:47;;;;;;;10.23;7.60;;;12.70;99.90;;;;;;4992721;28;20192;-87
2022/06/01 03:17:13;;;;;;;9.17;8.17;;;12.70;99.90;;;;;;4992193;28;20440;-88
2022/06/01 03:19:40;;;;;;;8.67;7.77;;;12.70;99.90;;;;;;4992474;28;20572;-87
2022/06/01 03:22:07;;;;;;;9.13;8.13;;;12.70;99.90;;;;;;4996120;28;20623;-86
2022/06/01 03:24:34;;;;;;;8.70;7.80;;;12.70;99.90;;;;;;4996099;28;20327;-87
2022/06/01 03:27:02;;;;;;;8.83;7.57;;;12.70;99.90;;;;;;4996399;28;20235;-86
2022/06/01 03:29:30;;;;;;;9.90;8.43;;;12.70;99.90;;;;;;4989567;28;20228;-88
2022/06/01 03:31:58;;;;;;;9.50;8.30;;;12.70;99.90;;;;;;5006535;28;20188;-86
2022/06/01 03:34:28;;;;;;;9.00;8.10;;;12.70;1.00;;;;;;4996097;28;20188;-85
2022/06/01 03:36:58;;;;;;;9.07;7.90;;;12.70;1.00;;;;;;5016091;28;20184;-89
2022/06/01 03:39:27;;;;;;;11.53;8.17;;;12.70;1.00;;;;;;5014559;28;20265;-87
2022/06/01 03:41:59;;;;;;;9.20;8.30;;;12.70;1.00;;;;;;5020083;28;20275;-89
2022/06/01 03:47:16;;;;;;;10.87;7.97;;;12.80;1.00;;;;;;5008743;28;20202;-86
2022/06/01 03:49:44;;;;;;;9.00;8.10;;;12.80;1.00;;;;;;5011176;28;20228;-89
2022/06/01 03:52:20;;;;;;;10.33;9.00;;;12.90;1.00;;;;;;5016906;28;20205;-87
2022/06/01 03:54:55;;;;;;;9.40;7.80;;;12.90;1.00;;;;;;5004409;28;20664;-88
2022/06/01 03:57:22;;;;;;;9.80;8.47;;;12.90;1.00;;;;;;5005193;28;20203;-87
2022/06/01 03:59:49;;;;;;;10.60;8.60;;;12.90;1.00;;;;;;5002358;28;20301;-86
2022/06/01 04:02:17;;;;;;;10.73;8.43;;;13.00;1.00;;;;;;5004151;28;20239;-84
2022/06/01 04:04:44;;;;;;;9.57;8.43;;;13.00;1.00;;;;;;5003701;28;20223;-86
2022/06/01 04:07:11;;;;;;;9.93;8.77;;;13.00;1.00;;;;;;5004822;28;20243;-85
2022/06/01 04:09:42;;;;;;;10.25;8.80;;;13.00;1.00;;;;;;5006704;28;20201;-87
2022/06/01 04:12:10;;;;;;;9.75;8.50;;;13.10;1.00;;;;;;5004485;28;20057;-90
2022/06/01 04:14:36;;;;;;;;;;;13.10;1.00;;;;;;4999958;28;19964;-86
2022/06/01 04:17:03;;;;;;;;;;;13.10;1.00;;;;;;4996026;28;19925;-85
2022/06/01 04:19:31;;;;;;;;;;;13.20;1.00;;;;;;5001691;28;19926;-84
2022/06/01 04:21:58;;;;;;;;;;;13.20;1.00;;;;;;4996013;28;20009;-84
2022/06/01 04:24:33;;;;;;;;;;;13.20;1.00;;;;;;4999921;28;19965;-88
2022/06/01 04:27:04;;;;;;;;;;;13.20;1.00;;;;;;5012437;28;19991;-89
2022/06/01 04:29:31;;;;;;;;;;;13.20;1.00;;;;;;5009111;28;19949;-89
2022/06/01 04:32:01;;;;;;;;;;;13.20;1.00;;;;;;5001976;28;20433;-87
2022/06/01 04:34:27;;;;;;;;;;;13.20;1.00;;;;;;5001707;28;19976;-87
2022/06/01 04:36:55;;;;;;;;;;;13.10;1.00;;;;;;5000838;28;19979;-86
2022/06/01 04:39:22;;;;;;;;;;;13.10;1.00;;;;;;5015422;28;19929;-85
2022/06/01 04:41:49;;;;;;;;;;;13.10;1.00;;;;;;5007205;28;20020;-89
2022/06/01 04:44:23;;;;;;;;;;;13.10;1.00;;;;;;4991473;28;19921;-90
2022/06/01 04:46:50;;;;;;;;;;;13.10;1.00;;;;;;5003124;28;20020;-86
2022/06/01 04:49:17;;;;;;;;;;;13.10;1.00;;;;;;5005358;28;20438;-89
2022/06/01 04:51:47;;;;;;;;;;;13.10;1.00;;;;;;5007611;28;19926;-88
2022/06/01 04:54:15;;;;;;;;;;;13.10;1.00;;;;;;5006649;28;19922;-88
2022/06/01 04:56:42;;;;;;;;;;;13.20;1.00;;;;;;4987743;28;19913;-87
2022/06/01 04:59:11;;;;;;;;;;;13.20;1.00;;;;;;4987582;28;20000;-89
2022/06/01 05:01:37;;;;;;;;;;;13.30;1.00;;;;;;5003260;28;19906;-87
2022/06/01 05:04:17;;;;;;;;;;;13.40;1.00;;;;;;5003980;28;20374;-89
2022/06/01 05:06:47;;;;;;;;;;;13.40;1.00;;;;;;5009460;28;20010;-95
2022/06/01 05:09:29;;;;;;;;;;;13.60;1.00;;;;;;5005853;28;19936;-94
2022/06/01 05:15:26;;;;;;;;;;;13.90;1.00;;;;;;2079597;23;20184;-87
2022/06/01 05:17:55;;;;;;;10.30;8.43;;;14.10;1.00;;;;;;5004282;28;19932;-90
2022/06/01 05:20:21;;;;;;;9.40;7.70;;;14.50;99.90;;;;;;5004347;28;20595;-91
2022/06/01 05:22:48;;;;;;;;;;;15.20;99.90;;;;;;5007841;28;20210;-90
2022/06/01 05:25:21;;;;;;;;;;;16.00;99.90;;;;;;5005430;28;19949;-92
2022/06/01 05:27:48;;;;;;;34.72;19.33;;;16.60;1.00;;;;;;5004507;28;20011;-92
2022/06/01 05:33:00;;;;;;;23.13;10.52;;;18.40;1.00;;;;;;5001856;28;19922;-90
2022/06/01 05:35:27;;;;;;;21.42;11.90;;;19.50;1.00;;;;;;5008930;28;20207;-93
2022/06/01 05:37:54;;;;;;;18.98;10.65;;;19.60;1.00;;;;;;5004737;28;20198;-94
2022/06/01 05:40:30;;;;;;;28.45;14.18;;;19.40;99.90;;;;;;5002045;28;20258;-91
2022/06/01 05:43:00;;;;;;;34.40;18.77;;;19.10;99.90;;;;;;5004154;28;20209;-91
2022/06/01 05:45:31;;;;;;;68.60;30.23;;;18.70;99.90;;;;;;5002247;28;20061;-93
2022/06/01 05:48:19;;;;;;;55.58;27.38;;;18.40;99.90;;;;;;5003615;28;20644;-93
2022/06/01 05:50:53;;;;;;;60.33;27.33;;;18.10;99.90;;;;;;5017388;28;20238;-91
2022/06/01 05:56:12;;;;;;;27.85;13.95;;;17.40;99.90;;;;;;5002949;28;20193;-89
2022/06/01 05:58:50;;;;;;;69.30;32.75;;;17.00;99.90;;;;;;5002208;28;20221;-92
2022/06/01 06:01:22;;;;;;;90.05;40.05;;;16.80;99.90;;;;;;4998224;28;20706;-90
2022/06/01 06:06:32;;;;;;;80.05;36.63;;;16.80;99.90;;;;;;5113135;23;20705;-89
2022/06/01 06:09:11;;;;;;;68.35;28.95;;;16.80;99.90;;;;;;4982179;28;20228;-95
2022/06/01 06:11:40;;;;;;;103.35;38.80;;;16.60;99.90;;;;;;5000917;28;20180;-91
2022/06/01 06:14:13;;;;;;;65.50;29.90;;;16.40;99.90;;;;;;4999761;28;20200;-93
2022/06/01 06:17:05;;;;;;;50.10;24.30;;;16.30;1.00;;;;;;5001588;28;20265;-91
2022/06/01 06:19:32;;;;;;;29.80;14.18;;;16.20;1.00;;;;;;4985326;28;20201;-88
2022/06/01 06:22:07;;;;;;;33.95;16.08;;;16.80;1.00;;;;;;4983809;28;20317;-90
2022/06/01 06:24:43;;;;;;;29.80;15.23;;;17.40;1.00;;;;;;4984635;28;20182;-93
2022/06/01 06:27:10;;;;;;;17.13;8.70;;;18.40;1.00;;;;;;5005599;28;20246;-91
2022/06/01 06:29:51;;;;;;;65.45;26.00;;;19.10;99.90;;;;;;5003194;28;20213;-90
2022/06/01 06:32:18;;;;;;;166.18;57.55;;;19.10;99.90;;;;;;5006938;28;20202;-90
2022/06/01 06:34:45;;;;;;;135.82;48.17;;;18.80;73.50;;;;;;5003393;28;20225;-92
2022/06/01 06:37:16;;;;;;;104.50;42.05;;;18.50;55.90;;;;;;4992411;28;20180;-91
2022/06/01 06:39:47;;;;;;;64.65;29.23;;;18.20;59.10;;;;;;4987455;28;20222;-91
2022/06/01 06:42:13;;;;;;;51.78;25.15;;;18.00;82.20;;;;;;4994711;28;20319;-92
2022/06/01 06:44:40;;;;;;;92.60;38.17;;;17.60;84.30;;;;;;5002995;28;20237;-91
2022/06/01 06:47:08;;;;;;;84.53;35.70;;;17.30;99.90;;;;;;4997038;28;20574;-91
2022/06/01 06:49:35;;;;;;;40.33;19.83;;;17.00;99.90;;;;;;4996046;28;20209;-92
2022/06/01 06:52:02;;;;;;;31.27;16.63;;;16.70;99.90;;;;;;4995321;28;20188;-92
2022/06/01 06:54:30;;;;;;;39.58;21.42;;;16.40;99.90;;;;;;5005722;28;20201;-92
2022/06/01 06:56:58;;;;;;;19.33;11.80;;;16.20;99.90;;;;;;4992449;28;20232;-92
2022/06/01 06:59:28;;;;;;;19.17;10.37;;;16.00;99.90;;;;;;5005535;28;20705;-92
2022/06/01 07:01:55;;;;;;;17.98;10.57;;;15.90;99.90;;;;;;5003649;28;20210;-90
2022/06/01 07:04:36;;;;;;;18.60;9.43;;;15.80;99.90;;;;;;5006619;28;20196;-93
2022/06/01 07:07:05;;;;;;;17.43;10.07;;;15.90;99.90;;;;;;5000873;28;20197;-90
2022/06/01 07:09:33;;;;;;;14.60;8.07;;;16.00;99.90;;;;;;4993003;28;20207;-88
2022/06/01 07:12:04;;;;;;;15.48;9.10;;;16.10;1.00;;;;;;4980630;28;20211;-91
2022/06/01 07:14:31;;;;;;;42.75;18.90;;;16.20;1.00;;;;;;5005718;28;20215;-92
2022/06/01 07:17:17;;;;;;;44.95;18.83;;;16.40;99.90;;;;;;4994251;28;20182;-88
2022/06/01 07:19:54;;;;;;;29.15;13.88;;;16.50;99.90;;;;;;5002802;28;20229;-90
2022/06/01 07:22:24;;;;;;;14.57;7.83;;;16.60;99.90;;;;;;5003369;28;20200;-91
2022/06/01 07:25:04;;;;;;;14.27;8.20;;;16.70;99.90;;;;;;4986584;28;20237;-95
2022/06/01 07:27:31;;;;;;;23.27;12.13;;;16.80;99.90;;;;;;4994440;28;20586;-90
2022/06/01 07:30:10;;;;;;;18.55;11.80;;;16.90;99.90;;;;;;5004100;28;20194;-94
2022/06/01 07:32:44;;;;;;;9.68;6.38;;;17.10;99.90;;;;;;4989980;28;20198;-93
2022/06/01 07:35:24;;;;;;;19.80;10.32;;;17.30;99.90;;;;;;4982098;28;20563;-94
2022/06/01 07:43:40;;;;;;;26.95;11.40;;;18.20;99.90;;;;;;5004185;28;20245;-92
2022/06/01 07:46:22;;;;;;;5.97;4.13;;;18.10;99.90;;;;;;4987613;28;20554;-94
2022/06/01 07:48:49;;;;;;;39.85;19.55;;;18.10;94.30;;;;;;4986338;28;20262;-92
2022/06/01 07:51:27;;;;;;;43.05;21.17;;;18.20;99.90;;;;;;5003387;28;20234;-95
2022/06/01 07:53:57;;;;;;;23.88;13.38;;;18.30;99.90;;;;;;5008279;28;20186;-93
2022/06/01 07:56:35;;;;;;;10.48;6.43;;;18.60;99.90;;;;;;5003381;28;20283;-92
2022/06/01 07:59:03;;;;;;;5.10;3.70;;;19.00;96.00;;;;;;4992992;28;20671;-94
2022/06/01 08:01:34;;;;;;;4.05;3.03;;;19.40;94.70;;;;;;5002818;28;20243;-95
2022/06/01 08:04:16;;;;;;;5.55;4.97;;;20.40;99.90;;;;;;5004431;28;20171;-94
2022/06/01 08:06:49;;;;;;;5.93;3.38;;;21.40;66.20;;;;;;5043753;23;20057;-93
2022/06/01 08:09:29;;;;;;;21.40;10.32;;;22.90;1.00;;;;;;5030869;28;20179;-94
2022/06/01 08:15:03;;;;;;;59.25;32.25;;;23.70;1.00;;;;;;5024686;28;20069;-91
2022/06/01 08:17:30;;;;;;;16.45;10.18;;;24.50;1.00;;;;;;5029112;28;20200;-95
2022/06/01 08:20:02;;;;;;;25.98;12.93;;;24.70;1.00;;;;;;5024736;28;20194;-93
2022/06/01 08:22:29;;;;;;;3.53;3.17;;;24.60;1.00;;;;;;5027473;28;20218;-91
2022/06/01 08:25:09;;;;;;;2.60;2.40;;;24.50;1.00;;;;;;5028641;28;20221;-94
2022/06/01 08:27:43;;;;;;;5.72;3.90;;;24.40;1.00;;;;;;5027999;28;20217;-94
2022/06/01 08:30:23;;;;;;;12.45;8.95;;;25.00;1.00;;;;;;5027346;28;20119;-91
2022/06/01 08:33:17;;;;;;;2.28;1.50;;;26.10;1.00;;;;;;5023680;28;20248;-92
2022/06/01 08:36:01;;;;;;;2.25;2.00;;;27.60;1.00;;;;;;5023038;28;20544;-93
2022/06/01 08:38:29;;;;;;;2.10;1.80;;;28.10;1.00;;;;;;5028790;28;20178;-94
2022/06/01 08:41:03;;;;;;;3.72;1.75;;;27.70;1.00;;;;;;5027716;28;20225;-91
2022/06/01 08:43:50;;;;;;;2.05;1.63;;;28.00;1.00;;;;;;5025072;28;20229;-94
2022/06/01 08:46:35;;;;;;;3.45;3.25;;;28.50;1.00;;;;;;5027156;28;20190;-93
2022/06/01 08:52:10;;;;;;;5.63;5.15;;;29.70;1.00;;;;;;5026143;28;20209;-93
2022/06/01 08:54:44;;;;;;;2.08;1.73;;;30.10;1.00;;;;;;5027627;28;20181;-90
2022/06/01 08:57:15;;;;;;;6.65;4.55;;;30.60;1.00;;;;;;5028710;28;20213;-93
2022/06/01 08:59:50;;;;;;;1.60;1.33;;;31.10;1.00;;;;;;5142147;23;20146;-93
2022/06/01 09:02:44;;;;;;;5.88;5.38;;;31.60;1.00;;;;;;4981286;28;20242;-92
2022/06/01 09:05:23;;;;;;;1.70;1.10;;;32.00;1.00;;;;;;4967608;28;20295;-92
2022/06/01 09:08:10;;;;;;;7.57;6.90;;;32.20;1.00;;;;;;4965296;28;20202;-93
2022/06/01 09:10:56;;;;;;;4.10;3.80;;;32.40;1.00;;;;;;4969229;28;20258;-92
2022/06/01 09:13:26;;;;;;;1.55;1.30;;;32.60;1.00;;;;;;5000023;28;20612;-91
2022/06/01 09:15:59;;;;;;;3.60;1.42;;;32.80;1.00;;;;;;4985504;28;20219;-93
2022/06/01 09:18:40;;;;;;;1.95;1.10;;;32.90;1.00;;;;;;4984453;28;20223;-95
2022/06/01 09:24:08;;;;;;;3.15;2.85;;;31.70;1.00;;;;;;5104283;23;20237;-94
2022/06/01 09:26:36;;;;;;;3.67;1.70;;;31.20;1.00;;;;;;5021424;23;20214;-91
2022/06/01 09:29:03;;;;;;;2.28;1.20;;;30.50;1.00;;;;;;4993911;28;20204;-92
2022/06/01 09:31:34;;;;;;;;;;;29.90;1.00;;;;;;4994950;28;20118;-91
2022/06/01 09:34:17;;;;;;;5.38;1.95;;;29.30;1.00;;;;;;4995304;28;20176;-92
2022/06/01 09:36:57;;;;;;;1.42;1.20;;;28.60;1.00;;;;;;4985543;28;20635;-91
2022/06/01 09:39:28;;;;;;;1.73;1.50;;;28.00;1.00;;;;;;5002321;28;20203;-93
2022/06/01 09:42:25;;;;;;;1.63;1.48;;;27.40;1.00;;;;;;4968109;28;20200;-92
2022/06/01 09:44:52;;;;;;;2.10;1.90;;;26.80;1.00;;;;;;5165164;23;20196;-91
2022/06/01 09:47:39;;;;;;;2.50;1.90;;;26.30;1.00;;;;;;5025879;28;20277;-90
2022/06/01 09:50:26;;;;;;;2.83;2.50;;;25.90;1.00;;;;;;5026091;28;20674;-92
2022/06/01 09:52:59;;;;;;;4.82;4.32;;;25.80;1.00;;;;;;5003479;28;20206;-90
2022/06/01 09:55:32;;;;;;;2.22;1.75;;;26.10;1.00;;;;;;5021137;28;20190;-90
2022/06/01 09:58:07;;;;;;;4.13;2.83;;;26.10;1.00;;;;;;5024173;28;20118;-91
2022/06/01 10:06:30;;;;;;;1.90;1.40;;;26.30;1.00;;;;;;5020067;28;20200;-91
2022/06/01 10:09:14;;;;;;;1.48;1.38;;;26.60;1.00;;;;;;5019246;28;20228;-92
2022/06/01 10:11:48;;;;;;;;;;;26.40;1.00;;;;;;5021978;28;20053;-94
2022/06/01 10:14:18;;;;;;;;;;;25.60;1.00;;;;;;5023681;28;20000;-91
2022/06/01 10:17:10;;;;;;;7.07;4.25;;;25.00;1.00;;;;;;5015973;28;20598;-91
2022/06/01 10:19:42;;;;;;;4.47;3.80;;;24.90;1.00;;;;;;5000140;28;20229;-92
2022/06/01 10:22:16;;;;;;;1.20;1.10;;;25.10;1.00;;;;;;5000831;28;20213;-92
2022/06/01 10:24:50;;;;;;;1.48;1.38;;;25.00;1.00;;;;;;5019760;28;20235;-89
2022/06/01 10:27:20;;;;;;;2.55;1.75;;;24.90;1.00;;;;;;5020657;28;20636;-89
2022/06/01 10:30:03;;;;;;;2.72;2.00;;;25.00;1.00;;;;;;5019305;28;20191;-89
2022/06/01 10:32:42;;;;;;;1.38;1.23;;;25.20;1.00;;;;;;5027084;28;20242;-90
2022/06/01 10:35:31;;;;;;;1.38;1.23;;;25.40;1.00;;;;;;5025872;28;20206;-93
2022/06/01 10:38:17;;;;;;;3.45;1.35;;;25.50;1.00;;;;;;5028995;28;20270;-91
2022/06/01 10:40:48;;;;;;;1.60;1.40;;;25.60;1.00;;;;;;5026219;28;20202;-90
2022/06/01 10:43:28;;;;;;;2.13;1.50;;;25.40;1.00;;;;;;5028017;28;20194;-92
2022/06/01 10:46:01;;;;;;;1.73;1.30;;;25.30;1.00;;;;;;5013902;28;20312;-92
2022/06/01 10:48:48;;;;;;;2.42;1.30;;;25.00;1.00;;;;;;5018406;28;20186;-94
2022/06/01 10:51:20;;;;;;;2.78;1.45;;;24.90;1.00;;;;;;5019670;28;20538;-90
2022/06/01 10:53:59;;;;;;;1.63;1.45;;;24.90;1.00;;;;;;5018853;28;20290;-91
2022/06/01 10:56:28;;;;;;;1.35;1.25;;;25.00;1.00;;;;;;5022453;28;20221;-96
2022/06/01 10:59:15;;;;;;;1.50;1.38;;;24.80;1.00;;;;;;5025878;28;20217;-93
2022/06/01 11:01:53;;;;;;;2.85;1.30;;;24.60;1.00;;;;;;5015303;28;20206;-91
2022/06/01 11:04:48;;;;;;;2.63;1.50;;;24.40;1.00;;;;;;5017719;28;20273;-91
2022/06/01 11:07:46;;;;;;;1.20;1.10;;;24.30;1.00;;;;;;5018667;28;20210;-89
2022/06/01 11:10:25;;;;;;;1.85;1.27;;;24.30;1.00;;;;;;5023513;28;20202;-92
2022/06/01 11:13:19;;;;;;;4.05;1.50;;;24.50;1.00;;;;;;5016580;28;20290;-93
2022/06/01 11:16:04;;;;;;;1.38;1.20;;;25.00;1.00;;;;;;5016607;28;20191;-90
2022/06/01 11:18:50;;;;;;;2.75;1.80;;;25.10;1.00;;;;;;5016682;28;20288;-93
2022/06/01 11:27:35;;;;;;;2.47;1.55;;;24.70;1.00;;;;;;5025608;28;20186;-90
2022/06/01 11:30:19;;;;;;;7.55;2.08;;;24.30;1.00;;;;;;5027015;28;20210;-92
2022/06/01 11:32:55;;;;;;;1.55;1.30;;;23.80;1.00;;;;;;5026358;28;20229;-91
2022/06/01 11:35:39;;;;;;;3.15;1.38;;;23.30;1.00;;;;;;5033813;28;20150;-93
2022/06/01 11:38:18;;;;;;;2.80;2.05;;;22.70;1.00;;;;;;5036950;28;20182;-91
2022/06/01 11:41:07;;;;;;;2.75;2.05;;;22.20;1.00;;;;;;5036266;28;20166;-91
2022/06/01 11:43:38;;;;;;;8.95;2.65;;;21.50;1.00;;;;;;5024456;28;20686;-88
2022/06/01 11:46:11;;;;;;;6.57;2.80;;;20.70;1.00;;;;;;5016430;28;20309;-91
2022/06/01 11:48:45;;;;;;;11.60;3.33;;;19.80;1.00;;;;;;5016907;28;20265;-91
2022/06/01 11:51:15;;;;;;;7.28;3.17;;;19.10;1.00;;;;;;5017042;28;20207;-90
2022/06/01 11:53:55;;;;;;;5.47;3.05;;;18.50;1.00;;;;;;5016392;28;20226;-89
2022/06/01 11:56:26;;;;;;;9.27;3.40;;;17.80;1.00;;;;;;5016717;28;20657;-90
2022/06/01 11:59:14;;;;;;;10.02;3.30;;;17.20;1.00;;;;;;5016726;28;20195;-91
2022/06/01 12:01:48;;;;;;;6.03;2.63;;;16.90;1.00;;;;;;5016221;28;20630;-89
2022/06/01 12:04:25;;;;;;;5.90;2.80;;;16.70;1.00;;;;;;5016508;28;20182;-89
2022/06/01 12:06:58;;;;;;;5.63;2.97;;;16.70;1.00;;;;;;5016545;28;20231;-91
2022/06/01 12:09:35;;;;;;;15.82;13.02;;;16.70;1.00;;;;;;5016676;28;20283;-90
2022/06/01 12:12:04;;;;;;;5.50;3.70;;;16.60;1.00;;;;;;5016553;28;20241;-91
2022/06/01 12:14:36;;;;;;;4.35;2.50;;;16.60;1.00;;;;;;5016107;28;20235;-90
2022/06/01 12:17:26;;;;;;;2.83;2.53;;;16.70;1.00;;;;;;5016542;28;20189;-91
2022/06/01 12:20:14;;;;;;;2.08;1.92;;;16.70;41.70;;;;;;5016115;28;20224;-90
2022/06/01 12:28:35;;;;;;;4.70;2.45;;;16.90;44.40;;;;;;5016248;28;20184;-90
2022/06/01 12:31:13;;;;;;;3.83;1.92;;;16.90;99.90;;;;;;5016176;28;20284;-89
2022/06/01 12:34:04;;;;;;;3.35;1.60;;;17.10;99.90;;;;;;5016128;28;20265;-91
2022/06/01 12:36:39;;;;;;;5.30;1.90;;;17.40;1.00;;;;;;5016918;28;20257;-92
2022/06/01 12:39:07;;;;;;;2.85;1.70;;;17.70;5.10;;;;;;5016115;28;20253;-90
2022/06/01 12:41:36;;;;;;;1.65;1.55;;;18.00;1.00;;;;;;5016161;28;20597;-91
2022/06/01 12:44:09;;;;;;;1.90;1.67;;;18.40;1.00;;;;;;5015858;28;20202;-91
2022/06/01 12:46:39;;;;;;;1.63;1.52;;;18.60;1.00;;;;;;5015838;28;20240;-93
2022/06/01 12:49:23;;;;;;;1.73;1.60;;;18.80;1.00;;;;;;5016070;28;20174;-92
2022/06/01 12:51:51;;;;;;;1.75;1.65;;;19.00;1.00;;;;;;5015951;28;20310;-92
2022/06/01 12:54:29;;;;;;;3.42;1.90;;;19.20;1.00;;;;;;5016745;28;20198;-90
2022/06/01 12:56:56;;;;;;;4.07;2.45;;;19.40;1.00;;;;;;5015217;28;20269;-91
2022/06/01 12:59:25;;;;;;;2.90;2.10;;;19.50;1.00;;;;;;5014737;28;20573;-91
2022/06/01 13:01:52;;;;;;;2.35;1.52;;;19.60;1.00;;;;;;5004296;28;20276;-90
2022/06/01 13:04:24;;;;;;;1.63;1.52;;;19.80;1.00;;;;;;5000920;28;20226;-90
2022/06/01 13:06:52;;;;;;;2.17;1.63;;;19.90;1.00;;;;;;5000934;28;20224;-93
2022/06/01 13:09:21;;;;;;;2.53;1.92;;;20.00;1.00;;;;;;5001557;28;20657;-91
2022/06/01 13:11:57;;;;;;;1.77;1.67;;;20.20;1.00;;;;;;5001117;28;20231;-92
2022/06/01 13:14:27;;;;;;;1.75;1.65;;;20.30;1.00;;;;;;5005643;28;20555;-92
2022/06/01 13:16:54;;;;;;;1.80;1.70;;;20.40;1.00;;;;;;5020183;28;20248;-90
2022/06/01 13:19:24;;;;;;;2.20;2.00;;;20.50;1.00;;;;;;5020446;28;20249;-90
2022/06/01 13:21:56;;;;;;;2.30;2.10;;;20.50;1.00;;;;;;5020495;28;20178;-92
2022/06/01 13:24:25;;;;;;;4.00;3.63;;;20.50;1.00;;;;;;5019947;28;20222;-91
2022/06/01 13:26:54;;;;;;;3.30;3.00;;;20.40;1.00;;;;;;5020064;28;20202;-90
2022/06/01 13:29:23;;;;;;;2.35;2.15;;;20.40;1.00;;;;;;5020432;28;20281;-90
2022/06/01 13:31:53;;;;;;;2.28;2.08;;;20.40;1.00;;;;;;5019974;28;20201;-90
2022/06/01 13:34:22;;;;;;;3.60;2.22;;;20.30;1.00;;;;;;5019946;28;20677;-91
2022/06/01 13:36:50;;;;;;;2.45;2.25;;;20.30;1.00;;;;;;5020002;28;20623;-90
2022/06/01 13:39:29;;;;;;;2.40;2.08;;;20.30;1.00;;;;;;5020112;28;20562;-90
2022/06/01 13:42:00;;;;;;;2.40;2.20;;;20.30;1.00;;;;;;5020303;28;20202;-90
2022/06/01 13:44:50;;;;;;;2.38;2.13;;;20.30;1.00;;;;;;5020365;28;20202;-91
2022/06/01 13:47:23;;;;;;;2.00;1.88;;;20.40;1.00;;;;;;5019866;28;20260;-91
2022/06/01 13:49:53;;;;;;;2.97;2.15;;;20.40;1.00;;;;;;5020295;28;20199;-92
2022/06/01 13:52:20;;;;;;;2.70;2.25;;;20.40;1.00;;;;;;5019938;28;20252;-92
2022/06/01 13:55:09;;;;;;;2.25;2.05;;;20.40;1.00;;;;;;5019972;28;20198;-92
2022/06/01 13:57:49;;;;;;;2.75;2.08;;;20.40;1.00;;;;;;5019408;28;20237;-87
2022/06/01 14:00:26;;;;;;;3.42;2.80;;;20.40;1.00;;;;;;5015348;28;20178;-87
2022/06/01 14:02:57;;;;;;;3.80;3.50;;;20.40;1.00;;;;;;5012853;28;20261;-87
2022/06/01 14:05:34;;;;;;;3.78;3.15;;;20.30;1.00;;;;;;5012919;28;20209;-87
2022/06/01 14:08:07;;;;;;;3.30;2.05;;;20.30;1.00;;;;;;5013723;28;20257;-87
2022/06/01 14:10:36;;;;;;;4.68;2.70;;;20.20;1.00;;;;;;5013420;28;20185;-87
2022/06/01 14:13:03;;;;;;;2.92;2.60;;;20.30;1.00;;;;;;5013286;28;20732;-87
2022/06/01 14:15:32;;;;;;;3.10;2.80;;;20.30;1.00;;;;;;5011842;28;20225;-87
2022/06/01 14:18:07;;;;;;;2.40;2.20;;;20.30;1.00;;;;;;5013675;28;20358;-87
2022/06/01 14:20:33;;;;;;;2.63;2.38;;;20.30;1.00;;;;;;5013598;28;20182;-88